Time;durP1;ratioP1;P1;durP2;ratioP2;P2;SDS_P1;SDS_P2;PMS_P1;PMS_P2;Temp;Humidity;BMP_temperature;BMP_pressure;BME280_temperature;BME280_humidity;BME280_pressure;Samples;Min_cycle;Max_cycle;Signal;HPM_P1;HPM_P2
2022/10/15 00:01:26;;;;;;;7.72;5.80;;;;;;;21.58;51.69;100525.31;5036085;28;20025;-61
2022/10/15 00:03:51;;;;;;;9.32;5.05;;;;;;;21.59;53.09;100527.81;5036085;28;20139;-61
2022/10/15 00:06:18;;;;;;;6.95;4.82;;;;;;;21.61;52.11;100519.44;5052390;28;20048;-63
2022/10/15 00:08:44;;;;;;;8.65;5.32;;;;;;;21.62;51.66;100521.94;5035839;28;20032;-62
2022/10/15 00:11:12;;;;;;;9.48;5.75;;;;;;;21.64;51.89;100519.00;5035794;28;20025;-62
2022/10/15 00:13:38;;;;;;;9.73;5.97;;;;;;;21.63;52.07;100514.63;5053401;28;20417;-62
2022/10/15 00:16:07;;;;;;;10.40;6.20;;;;;;;21.63;51.79;100517.34;5053502;28;20028;-63
2022/10/15 00:18:32;;;;;;;8.70;5.22;;;;;;;21.64;51.66;100521.72;5053545;28;20028;-62
2022/10/15 00:20:58;;;;;;;9.10;5.50;;;;;;;21.65;51.92;100524.25;5053420;28;20032;-62
2022/10/15 00:23:24;;;;;;;7.85;5.63;;;;;;;21.66;52.15;100516.94;5053306;28;20017;-62
2022/10/15 00:25:49;;;;;;;8.13;5.55;;;;;;;21.63;52.54;100510.00;5053305;28;20098;-62
2022/10/15 00:28:15;;;;;;;7.50;5.20;;;;;;;21.68;52.15;100512.09;5053288;28;20363;-62
2022/10/15 00:30:40;;;;;;;8.18;5.25;;;;;;;21.68;51.89;100507.50;5053114;28;20029;-62
2022/10/15 00:33:05;;;;;;;11.48;5.13;;;;;;;21.67;52.65;100510.41;5052914;28;20359;-62
2022/10/15 00:35:31;;;;;;;8.27;5.28;;;;;;;21.67;52.47;100526.78;5053190;28;20088;-62
2022/10/15 00:37:56;;;;;;;7.03;5.03;;;;;;;21.66;52.51;100527.84;5035310;28;20050;-62
2022/10/15 00:40:21;;;;;;;9.75;5.05;;;;;;;21.66;52.46;100525.09;5052991;28;20501;-62
2022/10/15 00:42:47;;;;;;;8.00;4.90;;;;;;;21.67;52.31;100521.31;5053154;28;20502;-62
2022/10/15 00:45:14;;;;;;;8.30;5.05;;;;;;;21.67;52.47;100529.50;5053513;28;20036;-62
2022/10/15 00:47:41;;;;;;;10.88;5.55;;;;;;;21.65;52.03;100528.88;5052000;28;20502;-62
2022/10/15 00:50:13;;;;;;;9.50;4.95;;;;;;;21.68;51.92;100542.09;5035210;28;20032;-62
2022/10/15 00:52:56;;;;;;;9.55;5.35;;;;;;;21.68;52.73;100547.53;5032037;28;20053;-62
2022/10/15 00:55:26;;;;;;;8.23;5.15;;;;;;;21.63;52.05;100542.72;5032505;28;20080;-62
2022/10/15 00:57:51;;;;;;;8.20;5.35;;;;;;;21.65;52.02;100556.13;5032791;28;20033;-62
2022/10/15 01:00:17;;;;;;;9.50;5.47;;;;;;;21.64;52.71;100558.03;5031806;28;20395;-62
2022/10/15 01:02:45;;;;;;;9.27;5.40;;;;;;;21.63;51.85;100559.09;5032802;28;20025;-62
2022/10/15 01:05:11;;;;;;;7.90;4.88;;;;;;;21.68;51.76;100555.72;5033032;28;20033;-62
2022/10/15 01:07:37;;;;;;;10.00;5.30;;;;;;;21.67;51.78;100560.34;5033073;28;20076;-62
2022/10/15 01:10:04;;;;;;;8.07;5.32;;;;;;;21.68;51.83;100555.72;5048396;28;20029;-63
2022/10/15 01:12:51;;;;;;;9.93;5.03;;;;;;;21.68;51.80;100556.56;5031601;28;20030;-62
2022/10/15 01:15:25;;;;;;;6.25;4.28;;;;;;;21.66;52.90;100557.81;5032936;28;20029;-62
2022/10/15 01:17:56;;;;;;;9.20;4.40;;;;;;;21.67;51.85;100549.44;5048290;28;20104;-63
2022/10/15 01:20:43;;;;;;;6.70;4.72;;;;;;;21.68;52.54;100550.28;5031653;28;20029;-62
2022/10/15 01:23:51;;;;;;;7.85;4.90;;;;;;;21.64;51.77;100549.84;5032865;28;20038;-62
2022/10/15 01:26:39;;;;;;;9.00;5.20;;;;;;;21.63;52.33;100547.34;5031241;28;20040;-63
2022/10/15 01:29:34;;;;;;;7.82;4.75;;;;;;;21.63;52.28;100547.34;5029739;28;20064;-62
2022/10/15 01:32:10;;;;;;;9.23;5.70;;;;;;;21.61;52.13;100536.63;5024485;28;20391;-63
2022/10/15 01:34:54;;;;;;;8.27;5.18;;;;;;;21.62;52.68;100529.28;5031596;28;20402;-62
2022/10/15 01:37:30;;;;;;;13.05;5.03;;;;;;;21.61;52.51;100525.72;5031441;28;20542;-62
2022/10/15 01:40:04;;;;;;;9.52;5.85;;;;;;;21.60;52.59;100531.38;5032946;28;20029;-62
2022/10/15 01:42:45;;;;;;;8.18;4.95;;;;;;;21.60;52.76;100525.94;5031549;28;20475;-63
2022/10/15 01:45:19;;;;;;;11.40;5.65;;;;;;;21.54;52.07;100510.41;5048138;28;20030;-62
2022/10/15 01:47:50;;;;;;;7.15;4.70;;;;;;;21.53;52.63;100512.28;5032653;28;20040;-62
2022/10/15 01:50:19;;;;;;;8.38;5.25;;;;;;;21.55;51.94;100525.72;5031338;28;20024;-62
2022/10/15 01:52:44;;;;;;;10.27;5.25;;;;;;;21.49;52.24;100519.22;5048843;28;20402;-63
2022/10/15 01:55:12;;;;;;;9.70;5.93;;;;;;;21.51;52.35;100524.44;5036164;28;20049;-62
2022/10/15 01:57:40;;;;;;;12.02;5.38;;;;;;;21.51;52.94;100522.56;5051524;28;20041;-62
2022/10/15 02:00:06;;;;;;;7.32;4.95;;;;;;;21.50;51.93;100520.88;5034861;28;20475;-63
2022/10/15 02:02:31;;;;;;;8.60;5.20;;;;;;;21.49;52.07;100516.50;5035915;28;20041;-62
2022/10/15 02:04:57;;;;;;;11.15;5.53;;;;;;;21.50;52.66;100520.88;5051460;28;20033;-62
2022/10/15 02:07:47;;;;;;;9.88;5.70;;;;;;;21.53;52.44;100523.19;5035843;28;20064;-63
2022/10/15 02:10:23;;;;;;;8.85;5.38;;;;;;;21.53;52.46;100525.91;5035869;28;20120;-63
2022/10/15 02:13:07;;;;;;;8.10;5.05;;;;;;;21.53;52.33;100525.06;5034495;28;20544;-62
2022/10/15 02:15:45;;;;;;;10.65;5.82;;;;;;;21.53;52.96;100515.00;5036070;28;20104;-62
2022/10/15 02:18:31;;;;;;;9.95;6.18;;;;;;;21.50;52.83;100503.72;5051230;28;20116;-62
2022/10/15 02:20:58;;;;;;;10.98;6.20;;;;;;;21.52;52.92;100507.06;5034706;28;20032;-62
2022/10/15 02:23:30;;;;;;;9.07;5.95;;;;;;;21.52;52.50;100512.50;5051237;28;20482;-62
2022/10/15 02:25:56;;;;;;;7.60;5.25;;;;;;;21.52;53.00;100512.50;5034308;28;20028;-62
2022/10/15 02:28:22;;;;;;;8.25;5.40;;;;;;;21.52;52.63;100518.81;5034444;28;20461;-62
2022/10/15 02:30:50;;;;;;;10.65;5.88;;;;;;;21.53;52.83;100515.00;5034362;28;20482;-62
2022/10/15 02:33:16;;;;;;;7.75;5.78;;;;;;;21.52;52.20;100513.34;5034157;28;20017;-63
2022/10/15 02:35:42;;;;;;;8.07;5.13;;;;;;;21.50;52.82;100504.53;5035467;28;20034;-63
2022/10/15 02:38:09;;;;;;;9.68;5.82;;;;;;;21.51;52.87;100499.91;5017565;28;20028;-62
2022/10/15 02:40:36;;;;;;;9.75;5.80;;;;;;;21.52;52.39;100507.06;5034190;28;20040;-62
2022/10/15 02:43:05;;;;;;;11.63;5.70;;;;;;;21.52;53.15;100498.88;5034129;28;20032;-62
2022/10/15 02:45:31;;;;;;;12.15;5.93;;;;;;;21.50;52.19;100496.34;5033991;28;20517;-63
2022/10/15 02:47:56;;;;;;;8.85;5.13;;;;;;;21.49;52.63;100489.22;5035230;28;20021;-62
2022/10/15 02:50:22;;;;;;;10.43;5.57;;;;;;;21.44;52.93;100481.66;5035157;28;20039;-63
2022/10/15 02:52:47;;;;;;;10.93;6.28;;;;;;;21.50;53.17;100477.25;5042616;28;20049;-62
2022/10/15 02:55:12;;;;;;;11.23;6.88;;;;;;;21.50;52.40;100473.72;5054981;28;20035;-62
2022/10/15 02:57:38;;;;;;;10.10;6.22;;;;;;;21.51;52.36;100484.41;5055200;28;20072;-63
2022/10/15 03:00:04;;;;;;;10.65;6.10;;;;;;;21.53;52.41;100481.47;5037088;28;20497;-63
2022/10/15 03:02:29;;;;;;;10.60;5.63;;;;;;;21.51;52.80;100475.38;5054756;28;20024;-63
2022/10/15 03:04:55;;;;;;;8.25;5.38;;;;;;;21.50;53.09;100471.81;5054693;28;20506;-63
2022/10/15 03:07:20;;;;;;;11.30;6.35;;;;;;;21.51;53.18;100472.66;5036993;28;20474;-63
2022/10/15 03:09:45;;;;;;;10.98;5.55;;;;;;;21.51;52.50;100472.66;5054697;28;20032;-62
2022/10/15 03:12:11;;;;;;;8.90;5.93;;;;;;;21.51;52.64;100475.38;5054550;28;20036;-63
2022/10/15 03:14:36;;;;;;;11.40;6.65;;;;;;;21.50;52.23;100471.00;5036848;28;20077;-62
2022/10/15 03:17:01;;;;;;;8.30;6.03;;;;;;;21.47;53.15;100475.78;5036567;28;20072;-62
2022/10/15 03:19:27;;;;;;;9.13;5.30;;;;;;;21.46;52.82;100470.56;5054507;28;20501;-63
2022/10/15 03:21:52;;;;;;;9.48;5.68;;;;;;;21.47;53.00;100473.06;5054464;28;20391;-62
2022/10/15 03:24:20;;;;;;;9.50;6.45;;;;;;;21.46;52.65;100471.41;5036491;28;20158;-62
2022/10/15 03:26:45;;;;;;;11.45;6.85;;;;;;;21.47;53.14;100469.50;5054415;28;20025;-62
2022/10/15 03:29:11;;;;;;;10.10;6.00;;;;;;;21.45;52.28;100474.34;5036419;28;20402;-62
2022/10/15 03:31:36;;;;;;;13.30;6.47;;;;;;;21.40;53.19;100461.34;5054373;28;20112;-63
2022/10/15 03:34:02;;;;;;;8.30;5.63;;;;;;;21.42;53.29;100467.41;5036392;28;20033;-62
2022/10/15 03:36:27;;;;;;;10.20;6.22;;;;;;;21.41;52.75;100473.09;5036671;28;20440;-62
2022/10/15 03:38:52;;;;;;;10.90;5.70;;;;;;;21.39;52.91;100475.16;5054052;28;20033;-62
2022/10/15 03:41:18;;;;;;;8.85;5.75;;;;;;;21.39;52.78;100478.72;5036328;28;20482;-63
2022/10/15 03:43:43;;;;;;;11.15;7.22;;;;;;;21.34;53.01;100473.06;5054175;28;20367;-62
2022/10/15 03:46:08;;;;;;;11.20;5.38;;;;;;;21.35;53.28;100480.22;5053894;28;20111;-62
2022/10/15 03:48:34;;;;;;;10.18;5.60;;;;;;;21.31;52.89;100481.66;5036251;28;20025;-62
2022/10/15 03:50:59;;;;;;;13.38;5.95;;;;;;;21.30;52.99;100477.25;5036133;28;20167;-63
2022/10/15 03:53:24;;;;;;;13.02;6.07;;;;;;;21.30;53.26;100485.41;5053630;28;20048;-63
2022/10/15 03:55:50;;;;;;;11.38;5.85;;;;;;;21.24;53.06;100478.09;5036321;28;20040;-63
2022/10/15 03:58:15;;;;;;;8.40;5.68;;;;;;;21.28;52.35;100482.06;5053814;28;20049;-63
2022/10/15 04:00:42;;;;;;;10.48;5.47;;;;;;;21.28;52.29;100476.63;5053800;28;20048;-62
2022/10/15 04:03:07;;;;;;;14.18;7.00;;;;;;;21.27;52.81;100469.47;5053868;28;20423;-62
2022/10/15 04:05:32;;;;;;;8.48;6.20;;;;;;;21.27;53.19;100466.75;5053671;28;20171;-62
2022/10/15 04:07:58;;;;;;;10.30;5.28;;;;;;;21.27;52.93;100464.03;5053611;28;20037;-62
2022/10/15 04:10:24;;;;;;;13.25;6.32;;;;;;;21.23;53.03;100454.59;5053595;28;20113;-62
2022/10/15 04:12:49;;;;;;;13.93;6.20;;;;;;;21.23;52.97;100451.03;5053485;28;20044;-63
2022/10/15 04:15:14;;;;;;;9.88;5.53;;;;;;;21.22;52.49;100450.19;5053031;28;20029;-63
2022/10/15 04:17:40;;;;;;;10.13;6.55;;;;;;;21.20;52.92;100441.41;5035781;28;20036;-63
2022/10/15 04:20:06;;;;;;;10.20;6.05;;;;;;;21.20;52.99;100449.56;5053505;28;20084;-62
2022/10/15 04:22:31;;;;;;;13.15;6.22;;;;;;;21.17;52.46;100444.53;5035991;28;20032;-63
2022/10/15 04:24:57;;;;;;;9.95;5.45;;;;;;;21.13;52.69;100448.75;5053593;28;20487;-63
2022/10/15 04:27:22;;;;;;;11.23;6.47;;;;;;;21.14;52.33;100466.75;5053519;28;20029;-63
2022/10/15 04:29:48;;;;;;;12.15;6.40;;;;;;;21.01;52.37;100444.91;5053310;28;20036;-63
2022/10/15 04:32:14;;;;;;;12.48;6.43;;;;;;;21.10;52.96;100460.03;5053421;28;20032;-63
2022/10/15 04:34:39;;;;;;;11.00;6.45;;;;;;;20.97;53.07;100440.06;5053512;28;20106;-63
2022/10/15 04:37:05;;;;;;;13.82;6.32;;;;;;;21.05;52.41;100456.22;5035334;28;20505;-62
2022/10/15 04:39:30;;;;;;;11.85;6.22;;;;;;;21.04;53.14;100460.00;5053295;28;20037;-62
2022/10/15 04:41:55;;;;;;;10.60;6.53;;;;;;;21.04;52.91;100454.53;5053141;28;20471;-62
2022/10/15 04:44:21;;;;;;;14.20;7.30;;;;;;;20.99;52.70;100448.88;5053024;28;20040;-63
2022/10/15 04:46:46;;;;;;;21.23;7.95;;;;;;;21.02;52.58;100456.63;5053111;28;20036;-62
2022/10/15 04:49:11;;;;;;;16.38;7.07;;;;;;;20.96;53.07;100444.69;5053110;28;20064;-62
2022/10/15 04:51:37;;;;;;;11.82;6.70;;;;;;;21.00;53.35;100456.81;5035620;28;20033;-63
2022/10/15 04:54:02;;;;;;;12.18;7.00;;;;;;;21.02;53.64;100453.91;5052824;28;20052;-62
2022/10/15 04:56:28;;;;;;;11.73;6.57;;;;;;;21.05;53.20;100465.22;5053279;28;20078;-63
2022/10/15 04:58:53;;;;;;;14.80;6.80;;;;;;;21.07;53.16;100457.72;5053039;28;20394;-63
2022/10/15 05:01:20;;;;;;;14.38;6.70;;;;;;;21.09;53.22;100458.34;5052960;28;20394;-63
2022/10/15 05:03:47;;;;;;;19.67;7.75;;;;;;;21.09;53.22;100454.78;5052977;28;20501;-63
2022/10/15 05:06:15;;;;;;;13.68;7.05;;;;;;;21.08;53.32;100451.22;5052921;28;20037;-62
2022/10/15 05:08:41;;;;;;;14.68;7.32;;;;;;;21.05;53.14;100446.16;5052927;28;20021;-62
2022/10/15 05:11:09;;;;;;;12.20;7.10;;;;;;;21.03;53.43;100453.69;5052894;28;20029;-63
2022/10/15 05:13:35;;;;;;;15.15;7.10;;;;;;;21.04;53.08;100449.94;5035058;28;20025;-62
2022/10/15 05:16:14;;;;;;;19.40;7.38;;;;;;;21.05;53.46;100448.06;5035085;28;20029;-62
2022/10/15 05:18:40;;;;;;;12.63;7.20;;;;;;;21.05;53.74;100443.41;5052894;28;20032;-62
2022/10/15 05:21:06;;;;;;;15.80;7.35;;;;;;;21.08;53.75;100445.78;5035340;28;20504;-62
2022/10/15 05:23:32;;;;;;;13.15;6.25;;;;;;;21.03;52.88;100425.63;5035307;28;20053;-62
2022/10/15 05:26:02;;;;;;;11.35;5.75;;;;;;;21.09;52.90;100435.72;5018599;28;20031;-63
2022/10/15 05:28:28;;;;;;;11.10;6.18;;;;;;;21.13;52.91;100432.41;5055013;28;20108;-63
2022/10/15 05:30:53;;;;;;;10.88;6.55;;;;;;;21.18;53.36;100435.31;5038810;28;20414;-63
2022/10/15 05:33:19;;;;;;;12.07;6.15;;;;;;;21.18;53.14;100435.31;5056482;28;20078;-63
2022/10/15 05:35:45;;;;;;;15.02;7.07;;;;;;;21.20;53.38;100443.28;5056798;28;20033;-62
2022/10/15 05:38:10;;;;;;;16.63;6.78;;;;;;;21.18;53.71;100440.78;5038794;28;20390;-63
2022/10/15 05:40:36;;;;;;;16.38;7.95;;;;;;;21.18;53.58;100446.22;5038738;28;20030;-62
2022/10/15 05:43:01;;;;;;;19.65;8.95;;;;;;;21.18;52.86;100440.78;5056422;28;20491;-62
2022/10/15 05:45:26;;;;;;;22.70;9.57;;;;;;;21.15;52.98;100446.63;5056747;28;20031;-62
2022/10/15 05:47:55;;;;;;;18.75;9.00;;;;;;;21.16;53.34;100444.75;5038426;28;20028;-62
2022/10/15 05:50:21;;;;;;;21.42;9.20;;;;;;;21.16;53.44;100442.84;5038276;28;20116;-63
2022/10/15 05:52:47;;;;;;;23.48;9.35;;;;;;;21.15;53.65;100440.34;5055927;28;20080;-63
2022/10/15 05:55:12;;;;;;;25.35;10.07;;;;;;;21.15;52.96;100440.34;5056142;28;20052;-63
2022/10/15 05:57:38;;;;;;;24.73;9.18;;;;;;;21.15;52.61;100443.91;5056055;28;20028;-63
2022/10/15 06:00:04;;;;;;;20.48;9.43;;;;;;;21.11;53.54;100450.81;5056032;28;20032;-62
2022/10/15 06:02:30;;;;;;;20.83;9.82;;;;;;;21.13;52.93;100450.63;5021703;28;20033;-62
2022/10/15 06:04:55;;;;;;;31.08;9.80;;;;;;;21.15;52.96;100452.09;5055856;28;20087;-63
2022/10/15 06:07:20;;;;;;;18.27;8.63;;;;;;;21.14;52.92;100447.66;5055882;28;20443;-63
2022/10/15 06:09:46;;;;;;;20.48;9.30;;;;;;;21.17;52.66;100452.72;5038036;28;20029;-63
2022/10/15 06:12:11;;;;;;;18.25;8.55;;;;;;;21.19;52.73;100449.78;5055925;28;20064;-63
2022/10/15 06:14:37;;;;;;;17.80;8.30;;;;;;;21.23;52.86;100453.75;5055778;28;20116;-63
2022/10/15 06:17:02;;;;;;;19.95;8.30;;;;;;;21.25;53.37;100447.06;5055721;28;20040;-63
2022/10/15 06:19:27;;;;;;;16.40;8.18;;;;;;;21.29;52.32;100458.38;5055614;28;20493;-62
2022/10/15 06:21:53;;;;;;;14.65;6.70;;;;;;;21.32;52.33;100453.38;5055894;28;20108;-63
2022/10/15 06:24:18;;;;;;;16.38;7.32;;;;;;;21.32;53.17;100444.34;5037846;28;20475;-63
2022/10/15 06:26:43;;;;;;;15.20;6.25;;;;;;;21.37;53.29;100448.13;5021249;28;20490;-63
2022/10/15 06:29:09;;;;;;;13.82;6.85;;;;;;;21.40;53.21;100449.59;5055529;28;20098;-62
2022/10/15 06:31:34;;;;;;;12.50;5.85;;;;;;;21.43;52.16;100449.19;5055462;28;20110;-63
2022/10/15 06:33:59;;;;;;;14.85;5.95;;;;;;;21.46;53.21;100448.75;5055340;28;20083;-62
2022/10/15 06:36:25;;;;;;;15.20;5.82;;;;;;;21.47;52.43;100445.81;5055314;28;20029;-63
2022/10/15 06:38:50;;;;;;;12.18;5.50;;;;;;;21.48;52.29;100446.66;5054876;28;20029;-63
2022/10/15 06:41:15;;;;;;;14.00;5.78;;;;;;;21.52;52.09;100452.53;5037292;28;20029;-63
2022/10/15 06:43:41;;;;;;;13.90;5.45;;;;;;;21.46;52.10;100441.44;5055291;28;20033;-62
2022/10/15 06:46:07;;;;;;;18.00;6.20;;;;;;;21.55;52.18;100452.13;5055143;28;20040;-63
2022/10/15 06:48:33;;;;;;;12.98;5.15;;;;;;;21.56;52.98;100451.06;5020778;28;20039;-63
2022/10/15 06:50:59;;;;;;;13.07;5.93;;;;;;;21.55;52.34;100454.84;5055083;28;20103;-62
2022/10/15 06:53:25;;;;;;;14.68;5.30;;;;;;;21.57;51.92;100447.28;5054836;28;20052;-62
2022/10/15 06:55:51;;;;;;;15.57;5.40;;;;;;;21.56;52.80;100448.34;5054939;28;20033;-63
2022/10/15 06:58:16;;;;;;;16.63;6.13;;;;;;;21.56;52.55;100445.59;5054948;28;20026;-62
2022/10/15 07:00:41;;;;;;;16.08;7.13;;;;;;;21.52;52.76;100428.00;5055206;28;20103;-63
2022/10/15 07:03:07;;;;;;;19.95;6.82;;;;;;;21.60;51.92;100427.78;5054891;28;20024;-63
2022/10/15 07:05:33;;;;;;;18.80;6.28;;;;;;;21.66;51.95;100424.22;5037212;28;20033;-63
2022/10/15 07:07:58;;;;;;;11.05;5.05;;;;;;;21.68;52.81;100424.84;5054814;28;20035;-63
2022/10/15 07:10:25;;;;;;;11.15;4.90;;;;;;;21.66;52.05;100410.59;5037248;28;20025;-62
2022/10/15 07:12:51;;;;;;;10.85;5.07;;;;;;;21.75;51.88;100421.06;5054607;28;20032;-63
2022/10/15 07:15:18;;;;;;;7.32;3.60;;;;;;;21.76;51.98;100416.44;5054839;28;20025;-63
2022/10/15 07:17:51;;;;;;;7.68;3.90;;;;;;;21.79;52.70;100407.84;5054416;28;20036;-62
2022/10/15 07:20:17;;;;;;;6.55;3.30;;;;;;;21.86;51.72;100414.16;5054760;28;20098;-63
2022/10/15 07:22:42;;;;;;;6.80;3.58;;;;;;;21.87;52.25;100413.94;5054494;28;20531;-63
2022/10/15 07:25:09;;;;;;;5.20;2.78;;;;;;;21.97;51.72;100427.16;5054763;28;20028;-63
2022/10/15 07:27:36;;;;;;;5.18;2.60;;;;;;;22.02;52.54;100416.44;5036744;28;20086;-63
2022/10/15 07:30:01;;;;;;;3.67;2.33;;;;;;;22.04;51.72;100415.19;5053243;28;20040;-63
2022/10/15 07:32:27;;;;;;;4.35;2.45;;;;;;;22.11;51.48;100417.88;5036444;28;20033;-63
2022/10/15 07:34:52;;;;;;;3.90;1.80;;;;;;;22.16;52.39;100417.25;5054273;28;20112;-63
2022/10/15 07:37:17;;;;;;;5.72;2.15;;;;;;;22.26;52.19;100418.47;5054227;28;20041;-63
2022/10/15 07:39:43;;;;;;;4.25;1.70;;;;;;;22.57;50.94;100410.38;5036438;28;20025;-63
2022/10/15 07:42:08;;;;;;;3.63;1.80;;;;;;;22.57;51.87;100404.91;5036413;28;20033;-63
2022/10/15 07:44:33;;;;;;;2.30;1.40;;;;;;;22.73;51.40;100413.66;5054266;28;20079;-64
2022/10/15 07:46:59;;;;;;;2.60;1.65;;;;;;;22.86;51.13;100402.69;5036147;28;20035;-63
2022/10/15 07:49:24;;;;;;;5.47;1.45;;;;;;;23.19;50.29;100406.03;5036043;28;20068;-64
2022/10/15 07:51:49;;;;;;;2.13;1.40;;;;;;;23.40;50.18;100402.94;5035410;28;20033;-64
2022/10/15 07:54:15;;;;;;;1.48;1.02;;;;;;;23.33;50.42;100393.94;5053989;28;20391;-62
2022/10/15 07:56:40;;;;;;;1.52;0.95;;;;;;;23.32;51.42;100392.25;5053818;28;20092;-63
2022/10/15 07:59:07;;;;;;;1.58;0.90;;;;;;;23.35;51.16;100394.53;5053903;28;20071;-63
2022/10/15 08:01:32;;;;;;;1.73;0.93;;;;;;;23.43;50.74;100399.75;5054223;28;20051;-62
2022/10/15 08:03:58;;;;;;;1.05;0.80;;;;;;;23.46;50.78;100387.53;5053663;28;20047;-63
2022/10/15 08:06:23;;;;;;;3.00;0.68;;;;;;;23.49;51.28;100389.81;5053692;28;20043;-63
2022/10/15 08:08:48;;;;;;;2.78;0.82;;;;;;;23.53;51.15;100393.81;5035873;28;20440;-64
2022/10/15 08:11:15;;;;;;;2.00;0.90;;;;;;;23.48;50.36;100385.44;5053577;28;20036;-64
2022/10/15 08:13:42;;;;;;;1.73;0.60;;;;;;;23.47;50.29;100387.34;5035820;28;20082;-64
2022/10/15 08:16:08;;;;;;;0.73;0.52;;;;;;;23.51;50.70;100385.81;5053514;28;20060;-64
2022/10/15 08:18:34;;;;;;;2.00;0.50;;;;;;;23.52;51.11;100382.03;5053680;28;20155;-64
2022/10/15 08:21:00;;;;;;;0.77;0.35;;;;;;;23.51;50.49;100377.59;5053500;28;20548;-64
2022/10/15 08:23:26;;;;;;;0.60;0.40;;;;;;;23.50;50.54;100378.69;5035962;28;20466;-64
2022/10/15 08:25:51;;;;;;;1.58;0.60;;;;;;;23.51;51.04;100374.03;5035575;28;20504;-64
2022/10/15 08:28:16;;;;;;;0.80;0.30;;;;;;;23.53;50.83;100380.97;5053388;28;20025;-64
2022/10/15 08:30:42;;;;;;;0.25;0.25;;;;;;;23.54;50.37;100379.88;5053321;28;20115;-64
2022/10/15 08:33:07;;;;;;;1.55;0.30;;;;;;;23.61;50.21;100383.41;5053178;28;20068;-64
2022/10/15 08:35:35;;;;;;;0.63;0.40;;;;;;;23.63;50.47;100378.56;5035388;28;20033;-64
2022/10/15 08:38:01;;;;;;;0.35;0.30;;;;;;;23.64;50.44;100360.25;5003198;28;20039;-64
2022/10/15 08:40:28;;;;;;;0.38;0.25;;;;;;;23.77;50.56;100369.16;5053135;28;20021;-63
2022/10/15 08:42:53;;;;;;;0.57;0.57;;;;;;;23.86;50.03;100368.84;5034487;28;20021;-64
2022/10/15 08:45:24;;;;;;;0.43;0.20;;;;;;;23.92;50.29;100373.41;5053422;28;20036;-65
2022/10/15 08:47:59;;;;;;;0.35;0.35;;;;;;;23.91;50.61;100369.00;5053141;28;20398;-64
2022/10/15 08:51:06;;;;;;;0.50;0.20;;;;;;;23.91;49.83;100369.84;5035291;28;20048;-64
2022/10/15 08:53:38;;;;;;;1.25;0.22;;;;;;;23.96;50.31;100366.41;4991899;28;20058;-64
2022/10/15 08:56:12;;;;;;;0.40;0.10;;;;;;;24.03;50.15;100361.72;5035328;28;20029;-64
2022/10/15 08:58:50;;;;;;;0.45;0.32;;;;;;;24.06;50.42;100361.25;5035277;28;20032;-62
2022/10/15 09:01:23;;;;;;;0.22;0.10;;;;;;;24.11;50.00;100354.06;5035608;28;20032;-64
2022/10/15 09:03:54;;;;;;;2.13;0.30;;;;;;;24.16;49.83;100356.09;5039348;28;20462;-64
2022/10/15 09:06:35;;;;;;;0.63;0.17;;;;;;;24.16;49.46;100362.44;5057062;28;20036;-64
2022/10/15 09:09:06;;;;;;;0.13;0.10;;;;;;;24.13;50.05;100356.56;5039233;28;20394;-64
2022/10/15 09:11:46;;;;;;;0.60;0.30;;;;;;;24.13;50.04;100356.56;5056979;28;20070;-65
2022/10/15 09:14:15;;;;;;;1.60;0.57;;;;;;;24.12;50.36;100363.13;5056907;28;20119;-62
2022/10/15 09:16:42;;;;;;;0.57;0.30;;;;;;;24.08;50.59;100353.66;5039244;28;20504;-64
2022/10/15 09:19:15;;;;;;;1.10;0.40;;;;;;;23.98;50.37;100347.88;5039038;28;20033;-64
2022/10/15 09:21:41;;;;;;;0.55;0.55;;;;;;;24.02;50.53;100360.03;5055887;28;20033;-64
2022/10/15 09:24:09;;;;;;;0.10;0.10;;;;;;;24.04;50.30;100353.25;5055637;28;20082;-61
2022/10/15 09:26:59;;;;;;;0.00;0.00;;;;;;;24.07;50.41;100349.22;5038992;28;20482;-62
2022/10/15 09:29:47;;;;;;;0.70;0.65;;;;;;;24.08;50.78;100345.44;5056603;28;20102;-62
2022/10/15 09:32:18;;;;;;;0.20;0.20;;;;;;;24.06;50.76;100342.09;5055421;28;20033;-62
2022/10/15 09:34:52;;;;;;;0.60;0.17;;;;;;;24.05;50.51;100359.59;5038999;28;20028;-62
2022/10/15 09:38:02;;;;;;;0.35;0.30;;;;;;;24.08;50.50;100339.97;5056510;28;20029;-62
2022/10/15 09:40:36;;;;;;;0.10;0.10;;;;;;;24.14;50.85;100339.09;5014582;28;20030;-61
2022/10/15 09:43:03;;;;;;;0.30;0.10;;;;;;;24.16;50.54;100339.69;5014573;28;20025;-62
2022/10/15 09:45:29;;;;;;;0.75;0.28;;;;;;;24.17;50.41;100330.41;5038098;28;20037;-61
2022/10/15 09:47:59;;;;;;;0.60;0.40;;;;;;;24.26;50.69;100337.25;5056323;28;20035;-62
2022/10/15 09:51:02;;;;;;;2.05;0.47;;;;;;;24.49;50.26;100326.41;5056164;28;20032;-62
2022/10/15 09:53:39;;;;;;;1.20;0.40;;;;;;;24.69;49.92;100317.88;5022668;28;20052;-62
2022/10/15 09:56:18;;;;;;;0.50;0.30;;;;;;;24.66;50.45;100318.34;5056214;28;20037;-62
2022/10/15 09:58:56;;;;;;;0.57;0.30;;;;;;;24.62;50.76;100322.66;5038229;28;20390;-62
2022/10/15 10:01:26;;;;;;;2.47;0.45;;;;;;;24.56;50.42;100315.34;5055903;28;20031;-62
2022/10/15 10:04:16;;;;;;;2.10;0.25;;;;;;;24.66;50.37;100313.72;5054837;28;20013;-62
2022/10/15 10:06:45;;;;;;;0.90;0.52;;;;;;;24.64;50.52;100324.09;5055879;28;20025;-62
2022/10/15 10:09:16;;;;;;;0.75;0.40;;;;;;;24.66;50.80;100313.72;5054761;28;20017;-62
2022/10/15 10:11:48;;;;;;;3.28;0.43;;;;;;;24.65;50.33;100316.72;5038134;28;20051;-62
2022/10/15 10:14:25;;;;;;;2.53;0.63;;;;;;;24.72;50.76;100318.28;5037218;28;20025;-62
2022/10/15 10:17:16;;;;;;;1.92;0.90;;;;;;;24.97;50.41;100303.56;5054604;28;20025;-62
2022/10/15 10:19:42;;;;;;;1.90;0.60;;;;;;;24.94;50.26;100315.00;5055770;28;20083;-62
2022/10/15 10:22:19;;;;;;;1.40;0.80;;;;;;;24.84;50.22;100313.69;5037773;28;20021;-62
2022/10/15 10:24:46;;;;;;;6.53;1.02;;;;;;;24.84;50.32;100310.97;5054473;28;20123;-65
2022/10/15 10:27:23;;;;;;;4.68;0.50;;;;;;;24.80;50.17;100317.97;5055553;28;20029;-62
2022/10/15 10:29:55;;;;;;;0.80;0.30;;;;;;;24.81;50.43;100316.91;5054267;28;20021;-62
2022/10/15 10:32:25;;;;;;;1.75;0.40;;;;;;;24.82;50.63;100324.03;5054530;28;20028;-62
2022/10/15 10:34:51;;;;;;;0.52;0.17;;;;;;;24.83;50.60;100320.25;5037564;28;20029;-62
2022/10/15 10:37:16;;;;;;;1.02;0.20;;;;;;;24.84;50.74;100327.41;5037627;28;20033;-62
2022/10/15 10:39:43;;;;;;;0.40;0.30;;;;;;;24.81;50.43;100321.53;5037762;28;20482;-63
2022/10/15 10:42:18;;;;;;;1.38;0.10;;;;;;;24.78;50.76;100331.03;5055491;28;20025;-62
2022/10/15 10:44:45;;;;;;;0.28;0.20;;;;;;;24.71;50.63;100324.81;5055583;28;20114;-62
2022/10/15 10:47:25;;;;;;;0.68;0.10;;;;;;;24.73;50.82;100341.88;5054357;28;20029;-62
2022/10/15 10:49:52;;;;;;;1.85;0.32;;;;;;;24.74;51.12;100327.06;5055357;28;20095;-62
2022/10/15 10:52:32;;;;;;;1.05;0.57;;;;;;;24.80;51.15;100319.88;5054088;28;20044;-62
2022/10/15 10:55:06;;;;;;;1.17;0.22;;;;;;;24.87;51.10;100320.63;5055280;28;20040;-62
2022/10/15 10:57:48;;;;;;;2.55;0.10;;;;;;;24.98;50.96;100305.25;5055004;28;20094;-62
2022/10/15 11:00:37;;;;;;;0.10;0.10;;;;;;;25.05;50.66;100311.44;5037297;28;20504;-62
2022/10/15 11:03:04;;;;;;;0.68;0.32;;;;;;;25.28;51.16;100303.25;5054844;28;20096;-63
2022/10/15 11:05:32;;;;;;;1.30;0.45;;;;;;;25.43;50.43;100300.88;5055118;28;20444;-62
2022/10/15 11:08:04;;;;;;;0.10;0.10;;;;;;;25.76;50.00;100303.03;5054861;28;20496;-62
2022/10/15 11:10:47;;;;;;;1.13;0.20;;;;;;;25.95;50.24;100291.66;5054756;28;20024;-62
2022/10/15 11:13:37;;;;;;;0.82;0.15;;;;;;;26.26;49.62;100298.63;5054634;28;20083;-62
2022/10/15 11:16:07;;;;;;;0.28;0.17;;;;;;;26.19;49.87;100313.56;5054611;28;20025;-62
2022/10/15 11:18:53;;;;;;;0.13;0.00;;;;;;;26.05;50.31;100297.34;5054649;28;20048;-62
2022/10/15 11:21:51;;;;;;;0.52;0.10;;;;;;;26.04;50.54;100292.94;5053702;28;20492;-62
2022/10/15 11:24:25;;;;;;;1.02;0.10;;;;;;;26.05;50.24;100296.50;5054268;28;20025;-62
2022/10/15 11:27:11;;;;;;;1.55;0.45;;;;;;;26.10;50.08;100301.28;5053587;28;20059;-62
2022/10/15 11:29:56;;;;;;;1.38;0.20;;;;;;;26.10;50.22;100301.28;5054412;28;20541;-62
2022/10/15 11:32:37;;;;;;;0.10;0.10;;;;;;;26.12;50.30;100304.59;5054534;28;20117;-62